Time;durP1;ratioP1;P1;durP2;ratioP2;P2;SDS_P1;SDS_P2;PMS_P1;PMS_P2;Temp;Humidity;BMP_temperature;BMP_pressure;BME280_temperature;BME280_humidity;BME280_pressure;Samples;Min_cycle;Max_cycle;Signal;HPM_P1;HPM_P2
2023/05/30 00:02:02;;;;;;;8.10;2.70;;;22.00;53.80;;;;;;5020921;28;20451;-85
2023/05/30 00:04:32;;;;;;;6.17;2.90;;;22.00;54.40;;;;;;5020226;28;20180;-85
2023/05/30 00:06:58;;;;;;;8.00;2.23;;;22.00;54.00;;;;;;5057508;28;20391;-84
2023/05/30 00:09:24;;;;;;;5.67;2.60;;;22.00;54.00;;;;;;5039815;28;20564;-84
2023/05/30 00:11:54;;;;;;;6.20;2.27;;;22.00;54.00;;;;;;5039727;28;20226;-84
2023/05/30 00:14:20;;;;;;;6.20;2.60;;;21.90;53.90;;;;;;5057161;28;20429;-84
2023/05/30 00:16:47;;;;;;;6.73;2.63;;;21.90;54.00;;;;;;5039497;28;20453;-84
2023/05/30 00:19:13;;;;;;;6.67;2.63;;;21.90;54.00;;;;;;5057272;28;20843;-84
2023/05/30 00:21:39;;;;;;;5.87;2.90;;;21.90;54.10;;;;;;5021069;28;20511;-85
2023/05/30 00:24:05;;;;;;;6.17;2.67;;;21.90;54.10;;;;;;5019612;28;20448;-83
2023/05/30 00:26:36;;;;;;;7.00;2.53;;;21.80;54.20;;;;;;5020143;28;20508;-84
2023/05/30 00:29:01;;;;;;;9.20;3.40;;;21.80;54.20;;;;;;5003328;28;20428;-84
2023/05/30 00:31:30;;;;;;;5.37;2.60;;;21.80;54.20;;;;;;5055886;28;20761;-84
2023/05/30 00:33:58;;;;;;;8.40;2.83;;;21.80;54.30;;;;;;5060583;28;20745;-86
2023/05/30 00:36:26;;;;;;;5.50;2.50;;;21.80;54.20;;;;;;5019067;28;20478;-84
2023/05/30 00:38:52;;;;;;;5.87;2.63;;;21.70;54.20;;;;;;5019719;28;20808;-85
2023/05/30 00:41:21;;;;;;;7.53;2.20;;;21.70;54.20;;;;;;5018892;28;20427;-85
2023/05/30 00:43:52;;;;;;;5.17;2.40;;;21.70;54.20;;;;;;5035964;28;20428;-84
2023/05/30 00:46:23;;;;;;;6.60;2.43;;;21.70;54.20;;;;;;5055611;28;20454;-85
2023/05/30 00:48:53;;;;;;;6.20;2.50;;;21.70;54.20;;;;;;5039126;28;20802;-84
2023/05/30 00:51:25;;;;;;;8.70;2.77;;;21.70;54.30;;;;;;5019158;28;20426;-84
2023/05/30 00:53:55;;;;;;;6.50;3.40;;;21.60;54.20;;;;;;5037378;28;20423;-85
2023/05/30 00:56:26;;;;;;;7.83;3.30;;;21.60;54.30;;;;;;5018987;28;20461;-85
2023/05/30 00:58:53;;;;;;;9.93;2.90;;;21.60;54.30;;;;;;5020488;28;20426;-85
2023/05/30 01:01:20;;;;;;;12.93;3.43;;;21.60;54.30;;;;;;5038963;28;20435;-85
2023/05/30 01:03:50;;;;;;;4.00;2.13;;;21.50;54.40;;;;;;5039255;28;20483;-84
2023/05/30 01:06:20;;;;;;;7.73;2.77;;;21.50;54.40;;;;;;5038644;28;20422;-85
2023/05/30 01:08:51;;;;;;;5.00;2.40;;;21.50;54.50;;;;;;5018752;28;20869;-84
2023/05/30 01:11:43;;;;;;;6.00;2.10;;;21.50;54.50;;;;;;5002851;28;20451;-84
2023/05/30 01:14:15;;;;;;;7.43;2.90;;;21.50;54.60;;;;;;5003009;28;20768;-86
2023/05/30 01:16:48;;;;;;;6.07;2.60;;;21.40;54.50;;;;;;5021794;28;20843;-85
2023/05/30 01:19:26;;;;;;;9.90;3.03;;;21.40;54.50;;;;;;5006205;28;20450;-85
2023/05/30 01:22:16;;;;;;;8.33;3.07;;;21.40;54.50;;;;;;5038677;28;20429;-85
2023/05/30 01:24:52;;;;;;;3.90;2.13;;;21.40;54.50;;;;;;5050148;28;20466;-86
2023/05/30 01:27:56;;;;;;;7.73;2.70;;;21.30;54.60;;;;;;5038402;28;20480;-84
2023/05/30 01:30:25;;;;;;;7.03;2.90;;;21.30;54.60;;;;;;5019870;28;20434;-84
2023/05/30 01:32:51;;;;;;;4.90;2.30;;;21.30;54.70;;;;;;5021979;28;20418;-84
2023/05/30 01:35:24;;;;;;;5.73;2.67;;;21.30;54.80;;;;;;5036891;28;20518;-84
2023/05/30 01:37:52;;;;;;;5.87;2.23;;;21.20;54.80;;;;;;5025188;28;20824;-84
2023/05/30 01:40:24;;;;;;;5.27;2.30;;;21.20;54.80;;;;;;5038458;28;20460;-85
2023/05/30 01:43:01;;;;;;;8.60;3.07;;;21.20;54.90;;;;;;5038175;28;20497;-84
2023/05/30 01:45:36;;;;;;;11.27;2.70;;;21.20;55.00;;;;;;5018385;28;20500;-85
2023/05/30 01:48:08;;;;;;;5.80;2.30;;;21.20;55.10;;;;;;5038477;28;20431;-84
2023/05/30 01:50:42;;;;;;;5.70;2.93;;;21.10;55.00;;;;;;5021604;28;20508;-85
2023/05/30 01:53:14;;;;;;;6.57;2.53;;;21.10;55.10;;;;;;5020948;28;20528;-86
2023/05/30 01:55:55;;;;;;;4.20;2.73;;;21.10;55.20;;;;;;5017150;28;20536;-85
2023/05/30 01:58:23;;;;;;;4.33;2.10;;;21.10;55.40;;;;;;5017402;28;20435;-85
2023/05/30 02:00:51;;;;;;;7.70;2.50;;;21.10;55.40;;;;;;5033609;28;20737;-84
2023/05/30 02:03:19;;;;;;;6.73;3.20;;;21.00;55.40;;;;;;5000684;28;20446;-84
2023/05/30 02:05:45;;;;;;;6.50;2.40;;;21.00;55.60;;;;;;5036897;28;20798;-85
2023/05/30 02:08:15;;;;;;;7.70;2.97;;;21.00;55.60;;;;;;5023218;28;20464;-85
2023/05/30 02:10:41;;;;;;;5.90;2.90;;;21.00;55.70;;;;;;5013813;28;20452;-85
2023/05/30 02:13:07;;;;;;;6.87;2.40;;;21.00;55.80;;;;;;4967014;28;20211;-85
2023/05/30 02:15:35;;;;;;;7.00;2.80;;;20.90;55.70;;;;;;4997125;28;20475;-85
2023/05/30 02:18:08;;;;;;;5.30;2.63;;;20.90;55.80;;;;;;4981038;28;20211;-84
2023/05/30 02:20:34;;;;;;;8.40;2.97;;;20.90;55.80;;;;;;4996749;28;20764;-84
2023/05/30 02:23:00;;;;;;;5.07;2.33;;;20.90;55.80;;;;;;4984074;28;20447;-85
2023/05/30 02:25:26;;;;;;;10.13;2.80;;;20.90;55.90;;;;;;4997021;28;20458;-84
2023/05/30 02:27:52;;;;;;;5.70;2.53;;;20.90;56.00;;;;;;4985257;28;20265;-85
2023/05/30 02:30:18;;;;;;;4.33;2.03;;;20.80;56.00;;;;;;4984453;28;20427;-85
2023/05/30 02:32:44;;;;;;;5.77;2.60;;;20.80;56.00;;;;;;5020447;28;20447;-85
2023/05/30 02:35:11;;;;;;;2.70;2.27;;;20.80;56.00;;;;;;5034020;28;20214;-84
2023/05/30 02:37:39;;;;;;;7.97;2.90;;;20.80;56.10;;;;;;5019657;28;20434;-84
2023/05/30 02:40:09;;;;;;;8.07;2.40;;;20.80;56.20;;;;;;5017465;28;20439;-85
2023/05/30 02:42:36;;;;;;;6.43;2.70;;;20.70;56.20;;;;;;5035665;28;20426;-85
2023/05/30 02:45:03;;;;;;;8.90;2.77;;;20.70;56.20;;;;;;5033774;28;20489;-84
2023/05/30 02:47:29;;;;;;;8.07;2.60;;;20.70;56.30;;;;;;5018620;28;20497;-84
2023/05/30 02:49:55;;;;;;;5.50;2.20;;;20.70;56.30;;;;;;5039128;28;20804;-85
2023/05/30 02:52:21;;;;;;;4.43;2.00;;;20.70;56.40;;;;;;5038686;28;20532;-84
2023/05/30 02:54:55;;;;;;;5.80;2.60;;;20.70;56.40;;;;;;4990836;28;20469;-83
2023/05/30 02:57:24;;;;;;;6.20;2.20;;;20.60;56.40;;;;;;5021200;28;20435;-83
2023/05/30 03:00:16;;;;;;;7.70;2.93;;;20.60;56.50;;;;;;5011919;28;20920;-83
2023/05/30 03:02:53;;;;;;;5.60;2.50;;;20.60;56.50;;;;;;5040575;28;20463;-85
2023/05/30 03:05:19;;;;;;;5.20;2.63;;;20.60;56.70;;;;;;5043036;28;20466;-84
2023/05/30 03:07:45;;;;;;;4.67;2.07;;;20.60;56.70;;;;;;5024458;28;20436;-84
2023/05/30 03:10:11;;;;;;;9.97;2.80;;;20.50;56.80;;;;;;5024376;28;20518;-84
2023/05/30 03:12:43;;;;;;;8.37;3.57;;;20.50;57.40;;;;;;5024201;28;20450;-84
2023/05/30 03:15:12;;;;;;;9.37;2.80;;;20.50;56.90;;;;;;5024698;28;20931;-84
2023/05/30 03:17:41;;;;;;;5.80;3.00;;;20.50;57.00;;;;;;5032818;28;20460;-84
2023/05/30 03:20:10;;;;;;;9.70;3.10;;;20.50;57.00;;;;;;5008200;28;20475;-83
2023/05/30 03:22:38;;;;;;;8.00;2.60;;;20.40;57.00;;;;;;5029280;28;20482;-83
2023/05/30 03:25:10;;;;;;;12.30;3.23;;;20.40;57.10;;;;;;5020911;28;20425;-83
2023/05/30 03:27:40;;;;;;;6.83;2.87;;;20.40;57.10;;;;;;5005120;28;20425;-84
2023/05/30 03:30:07;;;;;;;5.57;2.60;;;20.40;57.20;;;;;;5004341;28;20450;-83
2023/05/30 03:32:35;;;;;;;7.80;3.27;;;20.40;57.30;;;;;;5022738;28;20745;-84
2023/05/30 03:35:01;;;;;;;6.23;2.80;;;20.40;57.40;;;;;;5020721;28;20789;-85
2023/05/30 03:37:31;;;;;;;7.43;3.03;;;20.40;57.40;;;;;;5000952;28;20528;-83
2023/05/30 03:39:59;;;;;;;7.70;2.90;;;20.30;57.40;;;;;;5040185;28;20782;-84
2023/05/30 03:42:26;;;;;;;6.03;2.40;;;20.30;57.50;;;;;;5044255;28;20461;-83
2023/05/30 03:44:52;;;;;;;6.47;3.40;;;20.30;57.60;;;;;;5036986;28;20496;-84
2023/05/30 03:47:18;;;;;;;10.07;3.00;;;20.30;57.60;;;;;;4998149;28;20941;-86
2023/05/30 03:49:44;;;;;;;7.60;2.73;;;20.20;58.20;;;;;;5029502;28;20425;-85
2023/05/30 03:52:10;;;;;;;5.33;2.80;;;20.20;57.70;;;;;;5007597;28;20832;-83
2023/05/30 03:54:38;;;;;;;5.63;2.50;;;20.20;57.70;;;;;;5019938;28;20553;-84
2023/05/30 03:57:05;;;;;;;7.50;3.27;;;20.20;57.80;;;;;;5004153;28;20485;-83
2023/05/30 03:59:31;;;;;;;14.70;3.47;;;20.20;57.80;;;;;;5010357;28;20471;-84
2023/05/30 04:01:57;;;;;;;10.13;2.80;;;20.20;57.90;;;;;;5039932;28;20891;-83
2023/05/30 04:04:23;;;;;;;8.87;2.57;;;20.20;58.00;;;;;;5039172;28;20259;-83
2023/05/30 04:06:49;;;;;;;7.53;2.87;;;20.10;58.00;;;;;;5039713;28;20524;-84
2023/05/30 04:09:15;;;;;;;6.27;2.67;;;20.10;58.00;;;;;;5039210;28;20244;-84
2023/05/30 04:11:41;;;;;;;10.03;2.93;;;20.10;58.10;;;;;;5019690;28;20215;-84
2023/05/30 04:14:07;;;;;;;6.20;3.10;;;20.10;58.20;;;;;;5021971;28;20441;-84
2023/05/30 04:16:33;;;;;;;5.63;2.50;;;20.10;58.20;;;;;;5023060;28;20481;-84
2023/05/30 04:18:59;;;;;;;7.67;2.93;;;20.00;58.20;;;;;;5039497;28;20260;-84
2023/05/30 04:21:27;;;;;;;7.40;2.83;;;20.00;58.30;;;;;;5023443;28;20220;-84
2023/05/30 04:23:55;;;;;;;6.20;2.70;;;20.00;58.40;;;;;;5023047;28;20459;-83
2023/05/30 04:26:22;;;;;;;10.60;2.80;;;20.00;58.50;;;;;;5039658;28;20412;-86
2023/05/30 04:28:50;;;;;;;9.70;2.23;;;20.00;58.50;;;;;;5007035;28;20432;-83
2023/05/30 04:31:17;;;;;;;5.67;2.53;;;20.00;58.50;;;;;;5022969;28;20437;-84
2023/05/30 04:33:48;;;;;;;7.00;2.80;;;19.90;58.60;;;;;;5039244;28;20409;-84
2023/05/30 04:36:18;;;;;;;6.50;3.00;;;19.90;58.60;;;;;;5022872;28;20560;-84
2023/05/30 04:38:49;;;;;;;7.10;3.00;;;19.90;58.60;;;;;;5020175;28;20742;-84
2023/05/30 04:41:20;;;;;;;7.60;2.90;;;19.90;58.70;;;;;;5023103;28;20429;-84
2023/05/30 04:43:54;;;;;;;6.00;2.37;;;19.90;58.70;;;;;;5018996;28;20469;-85
2023/05/30 04:46:23;;;;;;;11.17;3.03;;;19.80;58.70;;;;;;5003090;28;20463;-84
2023/05/30 04:48:52;;;;;;;7.20;3.30;;;19.80;58.80;;;;;;5025297;28;20437;-85
2023/05/30 04:51:21;;;;;;;9.80;3.23;;;19.80;58.80;;;;;;5022876;28;20433;-83
2023/05/30 04:53:50;;;;;;;10.27;2.80;;;19.80;58.90;;;;;;5022015;28;20426;-84
2023/05/30 04:56:20;;;;;;;6.67;3.27;;;19.80;58.90;;;;;;5006015;28;20974;-84
2023/05/30 04:58:51;;;;;;;8.20;3.43;;;19.70;58.90;;;;;;5020268;28;20432;-83
2023/05/30 05:01:20;;;;;;;5.10;2.40;;;19.70;58.90;;;;;;5056369;28;20431;-83
2023/05/30 05:03:49;;;;;;;7.60;3.17;;;19.70;59.00;;;;;;5038480;28;20425;-84
2023/05/30 05:06:18;;;;;;;6.67;2.80;;;19.70;59.10;;;;;;5023215;28;20874;-84
2023/05/30 05:08:44;;;;;;;5.33;3.20;;;19.70;59.20;;;;;;5021886;28;20514;-84
2023/05/30 05:11:10;;;;;;;7.30;2.40;;;19.70;59.20;;;;;;5037613;28;20428;-84
2023/05/30 05:13:36;;;;;;;6.10;3.37;;;19.60;59.20;;;;;;5038470;28;20456;-85
2023/05/30 05:16:06;;;;;;;7.10;3.50;;;19.60;59.20;;;;;;5022068;28;20276;-83
2023/05/30 05:18:32;;;;;;;12.20;3.47;;;19.60;59.20;;;;;;5035111;28;20425;-83
2023/05/30 05:21:01;;;;;;;6.67;3.43;;;19.60;59.30;;;;;;5035237;28;20449;-82
2023/05/30 05:23:29;;;;;;;7.97;2.90;;;19.60;59.30;;;;;;5051373;28;20900;-84
2023/05/30 05:25:56;;;;;;;7.10;3.10;;;19.60;59.40;;;;;;5005705;28;20434;-84
2023/05/30 05:28:22;;;;;;;9.60;3.40;;;19.50;59.40;;;;;;5024509;28;20445;-83
2023/05/30 05:30:48;;;;;;;7.07;2.90;;;19.50;59.40;;;;;;5036077;28;20430;-83
2023/05/30 05:33:15;;;;;;;9.10;3.67;;;19.50;59.40;;;;;;5051080;28;20460;-84
2023/05/30 05:35:46;;;;;;;8.70;3.70;;;19.50;59.40;;;;;;5021686;28;20492;-84
2023/05/30 05:38:16;;;;;;;6.87;3.40;;;19.50;59.40;;;;;;5055494;28;20431;-91
2023/05/30 05:40:42;;;;;;;9.40;3.87;;;19.50;59.50;;;;;;5055637;28;20881;-83
2023/05/30 05:43:13;;;;;;;12.00;3.60;;;19.40;60.00;;;;;;5021744;28;20433;-84
2023/05/30 05:45:38;;;;;;;5.57;3.27;;;19.40;59.50;;;;;;5021495;28;20557;-86
2023/05/30 05:48:12;;;;;;;5.70;3.33;;;19.40;59.50;;;;;;5021365;28;20490;-84
2023/05/30 05:50:42;;;;;;;9.67;3.90;;;19.40;59.60;;;;;;5037762;28;20425;-83
2023/05/30 05:53:11;;;;;;;8.13;3.10;;;19.40;59.60;;;;;;5018075;28;20504;-84
2023/05/30 05:55:39;;;;;;;11.60;3.97;;;19.30;59.50;;;;;;5036012;28;20460;-83
2023/05/30 05:58:05;;;;;;;10.53;3.60;;;19.30;59.60;;;;;;5037965;28;20458;-85
2023/05/30 06:00:34;;;;;;;9.83;3.77;;;19.30;59.60;;;;;;5037786;28;20424;-83
2023/05/30 06:03:00;;;;;;;7.77;3.73;;;19.30;59.70;;;;;;5037573;28;20548;-85
2023/05/30 06:05:26;;;;;;;9.47;4.23;;;19.30;59.70;;;;;;5020994;28;20480;-83
2023/05/30 06:07:52;;;;;;;6.67;3.43;;;19.30;59.70;;;;;;5033402;28;20575;-83
2023/05/30 06:10:21;;;;;;;6.73;3.23;;;19.30;59.80;;;;;;5024481;28;20999;-84
2023/05/30 06:12:49;;;;;;;9.17;3.50;;;19.20;59.70;;;;;;5005361;28;20447;-87
2023/05/30 06:15:15;;;;;;;5.27;3.30;;;19.20;59.80;;;;;;5004821;28;20484;-87
2023/05/30 06:17:41;;;;;;;7.27;3.70;;;19.20;59.80;;;;;;5037951;28;20489;-87
2023/05/30 06:20:08;;;;;;;8.97;4.10;;;19.20;59.90;;;;;;5021098;28;20827;-85
2023/05/30 06:22:34;;;;;;;9.10;4.47;;;19.20;59.90;;;;;;5037242;28;20507;-85
2023/05/30 06:25:00;;;;;;;7.10;3.50;;;19.20;59.90;;;;;;5054975;28;20416;-85
2023/05/30 06:27:26;;;;;;;5.60;3.57;;;19.20;60.00;;;;;;5037011;28;20436;-84
2023/05/30 06:29:53;;;;;;;9.63;4.83;;;19.20;60.00;;;;;;5034246;28;20507;-85
2023/05/30 06:32:21;;;;;;;8.07;3.83;;;19.10;60.00;;;;;;5034239;28;20733;-85
2023/05/30 06:34:47;;;;;;;5.67;3.57;;;19.20;60.00;;;;;;5021883;28;20785;-84
2023/05/30 06:37:13;;;;;;;6.73;3.60;;;19.10;60.00;;;;;;5002199;28;20435;-84
2023/05/30 06:39:42;;;;;;;6.30;3.43;;;19.10;60.10;;;;;;5020697;28;20438;-84
2023/05/30 06:42:10;;;;;;;8.00;3.40;;;19.10;60.10;;;;;;5054431;28;20793;-84
2023/05/30 06:44:42;;;;;;;6.90;3.80;;;19.10;60.10;;;;;;5017514;28;20992;-84
2023/05/30 06:47:08;;;;;;;7.93;3.73;;;19.10;60.10;;;;;;5034455;28;20469;-84
2023/05/30 06:49:35;;;;;;;9.10;4.03;;;19.10;60.10;;;;;;5019597;28;20493;-83
2023/05/30 06:52:00;;;;;;;6.53;3.90;;;19.10;60.10;;;;;;5001274;28;20886;-85
2023/05/30 06:54:27;;;;;;;7.30;4.70;;;19.10;60.20;;;;;;5019893;28;20477;-84
2023/05/30 06:56:53;;;;;;;9.40;3.73;;;19.10;60.20;;;;;;5020545;28;20428;-83
2023/05/30 06:59:19;;;;;;;7.40;3.43;;;19.10;60.20;;;;;;5054342;28;20449;-85
2023/05/30 07:01:45;;;;;;;7.40;4.00;;;19.10;60.20;;;;;;5054603;28;20568;-85
2023/05/30 07:04:11;;;;;;;7.20;3.73;;;19.10;60.20;;;;;;5020552;28;20445;-86
2023/05/30 07:06:37;;;;;;;6.77;3.40;;;19.10;60.30;;;;;;5032554;28;20434;-87
2023/05/30 07:09:03;;;;;;;11.33;3.63;;;19.10;60.20;;;;;;5036322;28;20447;-85
2023/05/30 07:11:31;;;;;;;11.47;4.40;;;19.10;60.20;;;;;;5036680;28;20468;-86
2023/05/30 07:13:57;;;;;;;9.20;3.80;;;19.10;60.20;;;;;;5036994;28;20503;-84
2023/05/30 07:16:23;;;;;;;8.07;3.40;;;19.10;60.20;;;;;;5014867;28;20652;-83
2023/05/30 07:18:49;;;;;;;6.73;3.57;;;19.10;61.00;;;;;;5017332;28;20170;-85
2023/05/30 07:21:15;;;;;;;6.33;3.77;;;19.10;60.20;;;;;;5020715;28;20535;-86
2023/05/30 07:23:43;;;;;;;5.53;3.70;;;19.10;60.10;;;;;;5015126;28;20611;-83
2023/05/30 07:26:11;;;;;;;7.03;4.10;;;19.20;60.30;;;;;;5034887;28;20420;-85
2023/05/30 07:28:37;;;;;;;12.37;4.20;;;19.20;60.30;;;;;;5008040;28;20758;-85
2023/05/30 07:31:03;;;;;;;8.97;3.73;;;19.10;60.20;;;;;;5054560;28;20436;-86
2023/05/30 07:33:29;;;;;;;7.73;4.60;;;19.20;60.30;;;;;;5020348;28;20258;-86
2023/05/30 07:36:00;;;;;;;7.80;3.77;;;19.20;60.30;;;;;;5024695;28;20477;-86
2023/05/30 07:38:26;;;;;;;7.33;3.57;;;19.20;60.30;;;;;;5024070;28;20422;-86
2023/05/30 07:40:52;;;;;;;7.47;3.50;;;19.20;60.40;;;;;;5040641;28;20440;-84
2023/05/30 07:43:18;;;;;;;5.17;3.10;;;19.20;60.50;;;;;;5024161;28;20432;-86
2023/05/30 07:45:47;;;;;;;13.10;3.63;;;19.20;60.40;;;;;;5023868;28;20267;-84
2023/05/30 07:48:15;;;;;;;7.40;3.97;;;19.20;60.30;;;;;;5024440;28;20417;-86
2023/05/30 07:50:41;;;;;;;6.53;4.03;;;19.20;60.30;;;;;;5023964;28;20985;-85
2023/05/30 07:53:11;;;;;;;5.63;3.53;;;19.20;60.30;;;;;;5040390;28;20470;-86
2023/05/30 07:55:39;;;;;;;6.03;3.30;;;19.20;60.30;;;;;;5070780;28;20467;-85
2023/05/30 07:58:05;;;;;;;4.93;3.47;;;19.20;60.30;;;;;;5050634;28;20449;-86
2023/05/30 08:00:31;;;;;;;14.17;4.70;;;19.20;60.30;;;;;;5038273;28;20707;-87
2023/05/30 08:02:57;;;;;;;6.30;4.20;;;19.20;60.40;;;;;;5004189;28;20804;-88
2023/05/30 08:05:23;;;;;;;4.67;3.30;;;19.20;60.40;;;;;;5023725;28;20920;-85
2023/05/30 08:07:49;;;;;;;9.47;4.27;;;19.30;60.50;;;;;;5023066;28;20417;-84
2023/05/30 08:10:15;;;;;;;7.07;3.37;;;19.30;60.50;;;;;;5057348;28;20467;-86
2023/05/30 08:12:43;;;;;;;7.93;3.93;;;19.30;60.40;;;;;;5005058;28;20417;-89
2023/05/30 08:15:09;;;;;;;6.40;3.70;;;19.30;60.30;;;;;;5006438;28;20480;-86
2023/05/30 08:17:40;;;;;;;5.63;3.60;;;19.30;60.30;;;;;;5056978;28;20421;-85
2023/05/30 08:20:16;;;;;;;5.17;2.80;;;19.30;60.30;;;;;;5003478;28;20445;-84
2023/05/30 08:22:42;;;;;;;8.73;3.40;;;19.30;60.40;;;;;;5028610;28;20410;-84
2023/05/30 08:25:08;;;;;;;5.43;3.50;;;19.40;60.50;;;;;;5022660;28;20781;-84
2023/05/30 08:27:39;;;;;;;5.47;3.30;;;19.40;60.40;;;;;;5039283;28;20455;-86
2023/05/30 08:30:06;;;;;;;5.97;3.53;;;19.40;60.40;;;;;;5036308;28;20472;-87
2023/05/30 08:32:34;;;;;;;6.50;4.10;;;19.40;60.40;;;;;;5019971;28;20458;-85
2023/05/30 08:35:00;;;;;;;7.37;4.40;;;19.40;60.40;;;;;;5019791;28;20469;-88
2023/05/30 08:37:26;;;;;;;6.53;4.23;;;19.40;60.30;;;;;;5019956;28;20425;-85
2023/05/30 08:39:55;;;;;;;6.67;3.97;;;19.40;60.20;;;;;;5036489;28;20504;-87
2023/05/30 08:42:28;;;;;;;4.03;3.60;;;19.40;60.10;;;;;;5019614;28;20791;-86
2023/05/30 08:44:54;;;;;;;7.13;4.00;;;19.50;60.20;;;;;;5035896;28;20437;-87
2023/05/30 08:47:21;;;;;;;6.20;3.50;;;19.50;60.30;;;;;;5003401;28;20429;-85
2023/05/30 08:49:51;;;;;;;5.93;3.80;;;19.50;60.30;;;;;;5019572;28;20492;-86
2023/05/30 08:52:18;;;;;;;5.27;3.33;;;19.50;60.30;;;;;;5003025;28;20454;-85
2023/05/30 08:54:55;;;;;;;6.67;4.20;;;19.50;60.20;;;;;;5036241;28;20865;-85
2023/05/30 08:57:25;;;;;;;10.30;4.13;;;19.60;60.30;;;;;;5002741;28;20939;-85
2023/05/30 08:59:55;;;;;;;9.70;3.70;;;19.60;60.30;;;;;;5003132;28;20426;-86
2023/05/30 09:02:21;;;;;;;8.27;3.97;;;19.60;60.20;;;;;;5036421;28;20419;-86
2023/05/30 09:04:50;;;;;;;6.67;3.97;;;19.70;60.30;;;;;;5023484;28;20494;-86
2023/05/30 09:07:20;;;;;;;9.70;4.47;;;19.70;60.30;;;;;;5057804;28;20477;-85
2023/05/30 09:09:46;;;;;;;9.50;4.40;;;19.70;60.30;;;;;;5022876;28;20444;-91
2023/05/30 09:12:12;;;;;;;11.20;5.70;;;19.70;60.30;;;;;;5023167;28;20759;-88
2023/05/30 09:14:56;;;;;;;12.90;5.70;;;19.50;60.30;;;;;;5020322;28;20457;-94
2023/05/30 09:17:27;;;;;;;9.70;5.87;;;19.30;60.60;;;;;;5005939;28;20441;-89
2023/05/30 09:19:53;;;;;;;15.50;6.70;;;19.10;62.90;;;;;;5022005;28;20879;-87
2023/05/30 09:22:20;;;;;;;12.67;5.43;;;19.00;61.80;;;;;;5022144;28;20450;-87
2023/05/30 09:25:03;;;;;;;12.30;4.97;;;18.90;62.30;;;;;;5002537;28;20436;-87
2023/05/30 09:27:38;;;;;;;13.27;7.23;;;18.90;62.40;;;;;;5022222;28;20459;-90
2023/05/30 09:30:09;;;;;;;16.83;7.00;;;18.80;62.80;;;;;;5006774;28;20821;-88
2023/05/30 09:32:38;;;;;;;14.37;5.50;;;18.80;62.70;;;;;;5038289;28;20455;-86
2023/05/30 09:35:12;;;;;;;12.67;6.17;;;18.80;63.00;;;;;;5022378;28;20468;-87
2023/05/30 09:37:44;;;;;;;12.80;6.00;;;18.80;63.00;;;;;;5022425;28;20494;-87
2023/05/30 09:40:13;;;;;;;17.37;5.80;;;18.80;62.40;;;;;;5038544;28;20439;-89
2023/05/30 09:42:46;;;;;;;19.73;5.57;;;18.80;62.80;;;;;;5018724;28;20759;-90
2023/05/30 09:45:14;;;;;;;10.40;5.23;;;18.90;64.20;;;;;;5051169;28;20472;-96
2023/05/30 09:47:42;;;;;;;11.27;5.17;;;19.00;64.20;;;;;;5021288;28;20424;-89
2023/05/30 09:50:11;;;;;;;8.17;4.70;;;19.20;64.80;;;;;;5038939;28;20888;-92
2023/05/30 09:52:37;;;;;;;10.43;5.27;;;19.30;64.50;;;;;;5022797;28;20448;-88
2023/05/30 09:55:06;;;;;;;13.03;5.03;;;19.40;64.00;;;;;;5021732;28;20558;-90
2023/05/30 09:57:37;;;;;;;9.93;4.37;;;19.60;63.80;;;;;;5021396;28;20535;-94
2023/05/30 10:00:11;;;;;;;9.27;4.40;;;19.70;63.30;;;;;;5022199;28;20471;-89
2023/05/30 10:02:53;;;;;;;8.30;4.50;;;19.80;63.00;;;;;;5038999;28;20452;-93
2023/05/30 10:05:24;;;;;;;10.83;4.93;;;19.90;62.50;;;;;;5012604;28;20956;-90
2023/05/30 10:07:57;;;;;;;8.90;4.80;;;20.00;62.10;;;;;;5031212;28;20429;-92
2023/05/30 10:10:23;;;;;;;14.13;5.07;;;20.10;61.70;;;;;;5018673;28;20791;-89
2023/05/30 10:12:51;;;;;;;6.60;4.43;;;20.20;61.60;;;;;;5019679;28;20433;-88
2023/05/30 10:15:25;;;;;;;5.77;4.50;;;20.30;61.60;;;;;;5038015;28;20469;-90
2023/05/30 10:18:03;;;;;;;8.30;4.00;;;20.40;61.10;;;;;;5037933;28;20449;-91
2023/05/30 10:20:31;;;;;;;8.23;4.60;;;20.40;60.80;;;;;;5020819;28;20543;-88
2023/05/30 10:22:59;;;;;;;8.97;4.83;;;20.50;60.80;;;;;;5018820;28;20446;-89
2023/05/30 10:25:54;;;;;;;7.00;4.30;;;20.60;60.90;;;;;;5022903;28;20485;-94
2023/05/30 10:28:26;;;;;;;5.83;4.13;;;20.70;60.80;;;;;;5074741;28;20524;-88
2023/05/30 10:30:53;;;;;;;11.03;4.63;;;20.70;60.70;;;;;;5041443;28;20422;-89
2023/05/30 10:33:20;;;;;;;6.50;4.50;;;20.80;60.40;;;;;;5037853;28;20492;-89
2023/05/30 10:35:46;;;;;;;5.67;4.50;;;20.80;60.00;;;;;;5013196;28;20462;-88
2023/05/30 10:38:15;;;;;;;6.93;4.37;;;20.90;59.90;;;;;;5020250;28;20493;-89
2023/05/30 10:41:00;;;;;;;6.37;4.37;;;20.90;59.70;;;;;;5023719;28;20499;-91
2023/05/30 10:43:58;;;;;;;5.80;4.10;;;21.00;59.60;;;;;;5037413;28;20482;-87
2023/05/30 10:46:49;;;;;;;5.60;4.40;;;21.00;59.50;;;;;;5021505;28;20800;-89
2023/05/30 10:49:25;;;;;;;8.27;4.87;;;21.00;59.40;;;;;;5055077;28;20525;-88
2023/05/30 10:52:07;;;;;;;6.40;4.00;;;21.10;60.10;;;;;;5055546;28;20402;-90
2023/05/30 10:54:35;;;;;;;6.80;4.37;;;21.10;59.50;;;;;;5020926;28;21072;-90
2023/05/30 10:57:25;;;;;;;7.90;4.57;;;21.20;59.50;;;;;;5021332;28;20863;-88
2023/05/30 11:00:17;;;;;;;5.60;4.10;;;21.20;59.40;;;;;;5021003;28;20476;-89
2023/05/30 11:02:51;;;;;;;5.53;4.10;;;21.30;59.50;;;;;;5037684;28;20453;-89
2023/05/30 11:05:27;;;;;;;6.07;4.07;;;21.30;59.50;;;;;;5054578;28;20469;-90
2023/05/30 11:08:00;;;;;;;5.73;4.10;;;21.30;59.40;;;;;;5022433;28;20446;-89
2023/05/30 11:10:31;;;;;;;8.97;4.20;;;21.40;59.20;;;;;;5024187;28;20440;-89
2023/05/30 11:13:08;;;;;;;6.97;3.83;;;21.40;59.10;;;;;;5025205;28;20432;-88
2023/05/30 11:15:35;;;;;;;8.20;4.30;;;21.40;59.20;;;;;;5041055;28;20492;-91
2023/05/30 11:18:13;;;;;;;7.40;4.50;;;21.50;59.30;;;;;;5024847;28;20745;-90
2023/05/30 11:20:55;;;;;;;6.50;5.27;;;21.50;59.30;;;;;;5026310;28;20472;-92
2023/05/30 11:23:23;;;;;;;6.63;4.43;;;21.50;59.40;;;;;;5041157;28;20452;-90
2023/05/30 11:25:58;;;;;;;5.80;4.07;;;21.60;59.10;;;;;;5041716;28;20422;-95
2023/05/30 11:28:45;;;;;;;6.13;4.90;;;21.60;59.00;;;;;;5009450;28;20438;-90
2023/05/30 11:31:16;;;;;;;5.80;4.50;;;21.60;59.00;;;;;;5024696;28;20415;-90
2023/05/30 11:33:45;;;;;;;6.93;4.20;;;21.70;59.30;;;;;;5024761;28;20467;-89
2023/05/30 11:36:12;;;;;;;5.40;4.33;;;21.70;59.20;;;;;;5024201;28;20474;-91
2023/05/30 11:38:46;;;;;;;5.53;4.60;;;21.70;59.10;;;;;;5024737;28;20435;-88
2023/05/30 11:41:16;;;;;;;7.70;4.70;;;21.70;59.10;;;;;;5024526;28;20478;-90
2023/05/30 11:43:43;;;;;;;8.37;4.20;;;21.80;59.20;;;;;;5040940;28;20419;-89
2023/05/30 11:46:17;;;;;;;8.93;4.30;;;21.80;59.20;;;;;;5024245;28;20435;-95
2023/05/30 11:48:45;;;;;;;5.93;4.13;;;21.80;59.20;;;;;;5024901;28;20432;-90
2023/05/30 11:51:12;;;;;;;7.67;4.53;;;21.90;59.20;;;;;;5024825;28;20473;-88
2023/05/30 11:53:39;;;;;;;6.20;4.30;;;21.90;58.90;;;;;;5040821;28;20501;-89
2023/05/30 11:56:05;;;;;;;11.27;4.77;;;21.90;58.80;;;;;;5040296;28;20473;-90
2023/05/30 11:58:31;;;;;;;6.80;4.03;;;22.00;58.80;;;;;;5024501;28;20458;-91
2023/05/30 12:01:02;;;;;;;5.27;3.63;;;22.00;58.70;;;;;;5007726;28;20444;-87
2023/05/30 12:03:28;;;;;;;5.63;4.50;;;22.00;58.60;;;;;;5007538;28;20430;-89
2023/05/30 12:05:55;;;;;;;8.10;4.43;;;22.10;58.60;;;;;;5024123;28;20779;-90
2023/05/30 12:08:21;;;;;;;6.40;4.10;;;22.10;58.60;;;;;;5040218;28;20529;-91
2023/05/30 12:10:50;;;;;;;6.30;4.20;;;22.20;58.60;;;;;;5023910;28;20454;-89
2023/05/30 12:13:20;;;;;;;6.40;4.60;;;22.20;58.50;;;;;;5024255;28;20448;-89
2023/05/30 12:15:48;;;;;;;5.17;4.17;;;22.20;58.50;;;;;;5040289;28;20469;-89
2023/05/30 12:18:16;;;;;;;10.03;5.00;;;22.20;58.50;;;;;;5058194;28;20425;-89
2023/05/30 12:20:43;;;;;;;4.57;4.17;;;22.30;58.50;;;;;;5042984;28;20503;-88
2023/05/30 12:23:10;;;;;;;6.03;4.73;;;22.30;58.50;;;;;;5043593;28;20454;-88
2023/05/30 12:25:38;;;;;;;9.20;4.67;;;22.30;58.40;;;;;;5060298;28;20558;-89
2023/05/30 12:28:04;;;;;;;5.43;4.53;;;22.30;58.40;;;;;;5077885;28;20497;-88
2023/05/30 12:30:38;;;;;;;5.30;4.10;;;22.40;58.50;;;;;;5059783;28;20469;-89
2023/05/30 12:33:21;;;;;;;4.87;4.30;;;22.40;58.60;;;;;;5043231;28;20492;-88
2023/05/30 12:35:52;;;;;;;8.90;4.93;;;22.40;58.70;;;;;;5077215;28;20541;-88
2023/05/30 12:38:19;;;;;;;7.07;4.47;;;22.50;58.80;;;;;;5060255;28;20735;-95
2023/05/30 12:40:46;;;;;;;5.40;4.33;;;22.50;58.70;;;;;;5044671;28;20425;-88
2023/05/30 12:43:16;;;;;;;6.20;5.27;;;22.60;58.80;;;;;;5043355;28;20739;-89
2023/05/30 12:45:45;;;;;;;5.80;4.63;;;22.60;58.70;;;;;;5077986;28;20429;-91
2023/05/30 12:48:12;;;;;;;5.63;4.70;;;22.60;58.70;;;;;;5043528;28;20989;-88
2023/05/30 12:50:38;;;;;;;8.50;4.73;;;22.60;58.60;;;;;;5043770;28;20445;-91
2023/05/30 12:53:04;;;;;;;5.60;4.20;;;22.70;58.60;;;;;;5043334;28;20455;-88
2023/05/30 12:55:30;;;;;;;8.90;5.37;;;22.70;58.50;;;;;;5043025;28;20548;-89
2023/05/30 12:57:57;;;;;;;5.93;4.60;;;22.70;58.50;;;;;;5042879;28;20508;-89